Terminal Aerodrome Forecast
Issued by NWS

Home | Current Version | Previous Version | Text Only | Print | Product List | Glossary On
Versions: 1 2 3 4 5 6 7 8 9 10 11 12 13 14 15 16 17 18 19 20 21 22 23 24 25 26 27 28
000
FTUS43 KABR 182300
TAFMBG
TAF
KMBG 182328Z 1900/1924 14022G30KT P6SM OVC250
     FM190500 20013G21KT P6SM VCSH BKN100 OVC150
     FM190700 31012G20KT P6SM BKN200
     FM191400 29014G22KT P6SM SCT200=

USA.gov is the U.S. government's official web portal to all federal, state and local government web resources and services.